Time;durP1;ratioP1;P1;durP2;ratioP2;P2;SDS_P1;SDS_P2;PMS_P1;PMS_P2;Temp;Humidity;BMP_temperature;BMP_pressure;BME280_temperature;BME280_humidity;BME280_pressure;Samples;Min_cycle;Max_cycle;Signal;HPM_P1;HPM_P2
2024/03/18 00:00:59;;;;;;;;;;;;;;;;;;5030398;28;20291;-58
2024/03/18 00:03:27;;;;;;;;;;;;;;;;;;5031909;28;20382;-56
2024/03/18 00:05:53;;;;;;;;;;;;;;;;;;5029923;28;19955;-57
2024/03/18 00:08:22;;;;;;;;;;;;;;;;;;5018596;28;19913;-58
2024/03/18 00:10:48;;;;;;;;;;;;;;;;;;5017939;28;20394;-57
2024/03/18 00:13:14;;;;;;;;;;;;;;;;;;5015434;28;20446;-57
2024/03/18 00:15:41;;;;;;;;;;;;;;;;;;5026640;28;19917;-58
2024/03/18 00:18:07;;;;;;;;;;;;;;;;;;5012323;28;19909;-58
2024/03/18 00:20:33;;;;;;;;;;;;;;;;;;5013241;28;19913;-57
2024/03/18 00:22:59;;;;;;;;;;;;;;;;;;5012268;28;19971;-58
2024/03/18 00:25:25;;;;;;;;;;;;;;;;;;5026470;28;19978;-56
2024/03/18 00:27:54;;;;;;;;;;;;;;;;;;5029868;28;19912;-56
2024/03/18 00:30:20;;;;;;;;;;;;;;;;;;5029400;28;20295;-58
2024/03/18 00:32:47;;;;;;;;;;;;;;;;;;5018064;28;19935;-55
2024/03/18 00:35:13;;;;;;;;;;;;;;;;;;5031307;28;20375;-55
2024/03/18 00:37:39;;;;;;;;;;;;;;;;;;5033595;28;20333;-57
2024/03/18 00:40:06;;;;;;;;;;;;;;;;;;5017173;28;19909;-56
2024/03/18 00:42:32;;;;;;;;;;;;;;;;;;5017072;28;19909;-55
2024/03/18 00:44:58;;;;;;;;;;;;;;;;;;4999560;28;19916;-58
2024/03/18 00:47:28;;;;;;;;;;;;;;;;;;5033479;28;19916;-59
2024/03/18 00:49:54;;;;;;;;;;;;;;;;;;5028058;28;19909;-58
2024/03/18 00:52:20;;;;;;;;;;;;;;;;;;5015570;28;19949;-58
2024/03/18 00:54:47;;;;;;;;;;;;;;;;;;5015623;28;19913;-57
2024/03/18 00:57:13;;;;;;;;;;;;;;;;;;5033675;28;19971;-58
2024/03/18 00:59:39;;;;;;;;;;;;;;;;;;5033800;28;20035;-56
2024/03/18 01:02:05;;;;;;;;;;;;;;;;;;5002683;28;20012;-55
2024/03/18 01:04:34;;;;;;;;;;;;;;;;;;4998031;28;20343;-55
2024/03/18 01:07:01;;;;;;;;;;;;;;;;;;5016833;28;19917;-58
2024/03/18 01:09:34;;;;;;;;;;;;;;;;;;5031173;28;19967;-56
2024/03/18 01:12:00;;;;;;;;;;;;;;;;;;5017215;28;19956;-57
2024/03/18 01:14:26;;;;;;;;;;;;;;;;;;5033343;28;20012;-58
2024/03/18 01:16:52;;;;;;;;;;;;;;;;;;5020163;28;20295;-57
2024/03/18 01:19:19;;;;;;;;;;;;;;;;;;5003408;28;20375;-56
2024/03/18 01:21:45;;;;;;;;;;;;;;;;;;5021517;28;19914;-56
2024/03/18 01:24:11;;;;;;;;;;;;;;;;;;5015565;28;19928;-55
2024/03/18 01:26:38;;;;;;;;;;;;;;;;;;5035206;28;19908;-57
2024/03/18 01:29:05;;;;;;;;;;;;;;;;;;5034910;28;19913;-58
2024/03/18 01:31:31;;;;;;;;;;;;;;;;;;5022842;28;19905;-58
2024/03/18 01:33:57;;;;;;;;;;;;;;;;;;5015038;28;20004;-57
2024/03/18 01:36:23;;;;;;;;;;;;;;;;;;5010763;28;19947;-59
2024/03/18 01:38:50;;;;;;;;;;;;;;;;;;5033180;28;19916;-56
2024/03/18 01:41:16;;;;;;;;;;;;;;;;;;5018680;28;19963;-57
2024/03/18 01:43:43;;;;;;;;;;;;;;;;;;5014822;28;19909;-56
2024/03/18 01:46:09;;;;;;;;;;;;;;;;;;5006078;28;19905;-57
2024/03/18 01:48:35;;;;;;;;;;;;;;;;;;5011952;28;20307;-58
2024/03/18 01:51:01;;;;;;;;;;;;;;;;;;5014752;28;19916;-57
2024/03/18 01:53:28;;;;;;;;;;;;;;;;;;5014608;28;20276;-58
2024/03/18 01:55:54;;;;;;;;;;;;;;;;;;4998174;28;19910;-58
2024/03/18 01:58:23;;;;;;;;;;;;;;;;;;5005259;28;19909;-58
2024/03/18 02:00:49;;;;;;;;;;;;;;;;;;5026528;28;19964;-56
2024/03/18 02:03:17;;;;;;;;;;;;;;;;;;5014491;28;20402;-58
2024/03/18 02:05:44;;;;;;;;;;;;;;;;;;5015326;28;19916;-55
2024/03/18 02:08:11;;;;;;;;;;;;;;;;;;5018187;28;19915;-54
2024/03/18 02:10:41;;;;;;;;;;;;;;;;;;5014390;28;19910;-55
2024/03/18 02:13:07;;;;;;;;;;;;;;;;;;5014186;28;19917;-57
2024/03/18 02:15:33;;;;;;;;;;;;;;;;;;5015243;28;19909;-58
2024/03/18 02:17:59;;;;;;;;;;;;;;;;;;5015279;28;20004;-58
2024/03/18 02:20:25;;;;;;;;;;;;;;;;;;5015273;28;19956;-56
2024/03/18 02:22:52;;;;;;;;;;;;;;;;;;5017053;28;20359;-54
2024/03/18 02:25:18;;;;;;;;;;;;;;;;;;5022946;28;20422;-58
2024/03/18 02:27:47;;;;;;;;;;;;;;;;;;5033089;28;19975;-58
2024/03/18 02:30:13;;;;;;;;;;;;;;;;;;5026958;28;19910;-56
2024/03/18 02:32:43;;;;;;;;;;;;;;;;;;5001707;28;19941;-54
2024/03/18 02:35:11;;;;;;;;;;;;;;;;;;4996349;28;20289;-55
2024/03/18 02:37:37;;;;;;;;;;;;;;;;;;5031982;28;19909;-57
2024/03/18 02:40:07;;;;;;;;;;;;;;;;;;5031661;28;20363;-54
2024/03/18 02:42:35;;;;;;;;;;;;;;;;;;5033518;28;19916;-57
2024/03/18 02:45:02;;;;;;;;;;;;;;;;;;5032854;28;19932;-57
2024/03/18 02:47:28;;;;;;;;;;;;;;;;;;5014865;28;19910;-58
2024/03/18 02:49:54;;;;;;;;;;;;;;;;;;5019600;28;19967;-57
2024/03/18 02:52:20;;;;;;;;;;;;;;;;;;5015226;28;19951;-57
2024/03/18 02:54:46;;;;;;;;;;;;;;;;;;5025967;28;19909;-58
2024/03/18 02:57:13;;;;;;;;;;;;;;;;;;5027589;28;20433;-56
2024/03/18 02:59:39;;;;;;;;;;;;;;;;;;5013099;28;19909;-59
2024/03/18 03:02:05;;;;;;;;;;;;;;;;;;5027671;28;19913;-58
2024/03/18 03:04:34;;;;;;;;;;;;;;;;;;5002568;28;20372;-58
2024/03/18 03:07:00;;;;;;;;;;;;;;;;;;4996683;28;20144;-57
2024/03/18 03:09:27;;;;;;;;;;;;;;;;;;5013053;28;19924;-57
2024/03/18 03:11:53;;;;;;;;;;;;;;;;;;5016678;28;19909;-59
2024/03/18 03:14:19;;;;;;;;;;;;;;;;;;5031458;28;19923;-58
2024/03/18 03:16:45;;;;;;;;;;;;;;;;;;5030858;28;20332;-56
2024/03/18 03:19:13;;;;;;;;;;;;;;;;;;5029362;28;19909;-58
2024/03/18 03:21:39;;;;;;;;;;;;;;;;;;5032451;28;19904;-56
2024/03/18 03:24:05;;;;;;;;;;;;;;;;;;5015256;28;19940;-56
2024/03/18 03:26:32;;;;;;;;;;;;;;;;;;5030895;28;19905;-57
2024/03/18 03:28:58;;;;;;;;;;;;;;;;;;5001569;28;19964;-54
2024/03/18 03:31:27;;;;;;;;;;;;;;;;;;5024367;28;19909;-54
2024/03/18 03:33:54;;;;;;;;;;;;;;;;;;5027826;28;19909;-57
2024/03/18 03:36:23;;;;;;;;;;;;;;;;;;5030545;28;19909;-58
2024/03/18 03:38:50;;;;;;;;;;;;;;;;;;5012658;28;20019;-57
2024/03/18 03:41:17;;;;;;;;;;;;;;;;;;5013897;28;19956;-57
2024/03/18 03:43:43;;;;;;;;;;;;;;;;;;5024736;28;19925;-58
2024/03/18 03:46:10;;;;;;;;;;;;;;;;;;5017025;28;19917;-55
2024/03/18 03:48:36;;;;;;;;;;;;;;;;;;4995383;28;20362;-58
2024/03/18 03:51:02;;;;;;;;;;;;;;;;;;5018160;28;19908;-55
2024/03/18 03:53:29;;;;;;;;;;;;;;;;;;4985778;28;20360;-58
2024/03/18 03:56:00;;;;;;;;;;;;;;;;;;5022141;28;19909;-58
2024/03/18 03:58:26;;;;;;;;;;;;;;;;;;5027556;28;19909;-58
2024/03/18 04:00:52;;;;;;;;;;;;;;;;;;5030437;28;19915;-55
2024/03/18 04:03:19;;;;;;;;;;;;;;;;;;5016946;28;19916;-57
2024/03/18 04:05:45;;;;;;;;;;;;;;;;;;4994600;28;20280;-56
2024/03/18 04:08:11;;;;;;;;;;;;;;;;;;5012318;28;19910;-57
2024/03/18 04:10:38;;;;;;;;;;;;;;;;;;4994796;28;19972;-54
2024/03/18 04:13:04;;;;;;;;;;;;;;;;;;5023296;28;20292;-56
2024/03/18 04:15:31;;;;;;;;;;;;;;;;;;5028987;28;20382;-59
2024/03/18 04:17:58;;;;;;;;;;;;;;;;;;5012190;28;19909;-58
2024/03/18 04:20:24;;;;;;;;;;;;;;;;;;5025383;28;19905;-59
2024/03/18 04:22:50;;;;;;;;;;;;;;;;;;5010912;28;19909;-56
2024/03/18 04:25:16;;;;;;;;;;;;;;;;;;5012930;28;19909;-58
2024/03/18 04:27:43;;;;;;;;;;;;;;;;;;5012155;28;19916;-58
2024/03/18 04:30:12;;;;;;;;;;;;;;;;;;5012588;28;20004;-57
2024/03/18 04:32:41;;;;;;;;;;;;;;;;;;5031830;28;19909;-58
2024/03/18 04:35:07;;;;;;;;;;;;;;;;;;5013075;28;19936;-54
2024/03/18 04:37:45;;;;;;;;;;;;;;;;;;5012280;28;19913;-54
2024/03/18 04:40:14;;;;;;;;;;;;;;;;;;4994603;28;20388;-57
2024/03/18 04:42:41;;;;;;;;;;;;;;;;;;4994675;28;19913;-57
2024/03/18 04:45:07;;;;;;;;;;;;;;;;;;5011821;28;19913;-57
2024/03/18 04:47:38;;;;;;;;;;;;;;;;;;5034683;23;19932;-62
2024/03/18 04:50:04;;;;;;;;;;;;;;;;;;5006037;28;19921;-63
2024/03/18 04:52:30;;;;;;;;;;;;;;;;;;4992286;28;20004;-67
2024/03/18 04:54:57;;;;;;;;;;;;;;;;;;4991121;28;20004;-66
2024/03/18 04:57:23;;;;;;;;;;;;;;;;;;4994399;28;20272;-59
2024/03/18 04:59:49;;;;;;;;;;;;;;;;;;4991724;28;19910;-61
2024/03/18 05:02:18;;;;;;;;;;;;;;;;;;4992204;28;19909;-59
2024/03/18 05:04:45;;;;;;;;;;;;;;;;;;4992346;28;19910;-61
2024/03/18 05:07:11;;;;;;;;;;;;;;;;;;4991995;28;19917;-61
2024/03/18 05:09:38;;;;;;;;;;;;;;;;;;4992089;28;19920;-61
2024/03/18 05:12:07;;;;;;;;;;;;;;;;;;4992138;28;19932;-60
2024/03/18 05:14:33;;;;;;;;;;;;;;;;;;4991989;28;20380;-59
2024/03/18 05:16:59;;;;;;;;;;;;;;;;;;4991935;28;19992;-62
2024/03/18 05:19:25;;;;;;;;;;;;;;;;;;4991975;28;19909;-61
2024/03/18 05:21:52;;;;;;;;;;;;;;;;;;4958759;28;19920;-59
2024/03/18 05:24:21;;;;;;;;;;;;;;;;;;4994875;28;19909;-61
2024/03/18 05:26:47;;;;;;;;;;;;;;;;;;4995474;28;19932;-60
2024/03/18 05:29:16;;;;;;;;;;;;;;;;;;4995590;28;20431;-61
2024/03/18 05:31:42;;;;;;;;;;;;;;;;;;4995633;28;19956;-61
2024/03/18 05:34:13;;;;;;;;;;;;;;;;;;4995477;28;20327;-61
2024/03/18 05:36:39;;;;;;;;;;;;;;;;;;4995159;28;19910;-61
2024/03/18 05:39:08;;;;;;;;;;;;;;;;;;4995524;28;20342;-61
2024/03/18 05:41:35;;;;;;;;;;;;;;;;;;4995345;28;19917;-59
2024/03/18 05:44:08;;;;;;;;;;;;;;;;;;4995548;28;19953;-61
2024/03/18 05:46:38;;;;;;;;;;;;;;;;;;4977662;28;19917;-59
2024/03/18 05:49:05;;;;;;;;;;;;;;;;;;4995230;28;19917;-61
2024/03/18 05:51:34;;;;;;;;;;;;;;;;;;4995271;28;19973;-61
2024/03/18 05:54:03;;;;;;;;;;;;;;;;;;4977724;28;19914;-61
2024/03/18 05:56:29;;;;;;;;;;;;;;;;;;4995029;28;20368;-61
2024/03/18 05:58:57;;;;;;;;;;;;;;;;;;4995133;28;20507;-61
2024/03/18 06:01:23;;;;;;;;;;;;;;;;;;4977470;28;19917;-60
2024/03/18 06:03:50;;;;;;;;;;;;;;;;;;4994931;28;19914;-61
2024/03/18 06:06:16;;;;;;;;;;;;;;;;;;4977466;28;19910;-61
2024/03/18 06:08:46;;;;;;;;;;;;;;;;;;4994758;28;19922;-61
2024/03/18 06:11:12;;;;;;;;;;;;;;;;;;4994829;28;19917;-62
2024/03/18 06:13:39;;;;;;;;;;;;;;;;;;4994714;28;20288;-61
2024/03/18 06:16:05;;;;;;;;;;;;;;;;;;4977179;28;19966;-61
2024/03/18 06:18:34;;;;;;;;;;;;;;;;;;4977365;28;20340;-59
2024/03/18 06:21:00;;;;;;;;;;;;;;;;;;4994603;28;19913;-61
2024/03/18 06:23:27;;;;;;;;;;;;;;;;;;4994613;28;19910;-61
2024/03/18 06:25:59;;;;;;;;;;;;;;;;;;4994429;28;19916;-60
2024/03/18 06:28:28;;;;;;;;;;;;;;;;;;4994636;28;20431;-61
2024/03/18 06:30:55;;;;;;;;;;;;;;;;;;4977083;28;19912;-61
2024/03/18 06:33:21;;;;;;;;;;;;;;;;;;4994408;28;19910;-61
2024/03/18 06:35:56;;;;;;;;;;;;;;;;;;4993448;28;19905;-61
2024/03/18 06:38:22;;;;;;;;;;;;;;;;;;4994325;28;20008;-61
2024/03/18 06:40:52;;;;;;;;;;;;;;;;;;4977566;28;20284;-53
2024/03/18 06:43:18;;;;;;;;;;;;;;;;;;4994387;28;19905;-49
2024/03/18 06:45:48;;;;;;;;;;;;;;;;;;4976529;28;20364;-49
2024/03/18 06:48:14;;;;;;;;;;;;;;;;;;4993911;28;19918;-49
2024/03/18 06:50:41;;;;;;;;;;;;;;;;;;4994134;28;20356;-49
2024/03/18 06:53:10;;;;;;;;;;;;;;;;;;4994520;28;20531;-58
2024/03/18 06:55:36;;;;;;;;;;;;;;;;;;4993843;28;19910;-61
2024/03/18 06:58:05;;;;;;;;;;;;;;;;;;4994084;28;19914;-63
2024/03/18 07:00:31;;;;;;;;;;;;;;;;;;4990485;28;19914;-62
2024/03/18 07:02:57;;;;;;;;;;;;;;;;;;4984155;28;19918;-63
2024/03/18 07:05:24;;;;;;;;;;;;;;;;;;4972730;28;19917;-62
2024/03/18 07:07:59;;;;;;;;;;;;;;;;;;4973952;28;19961;-62
2024/03/18 07:10:26;;;;;;;;;;;;;;;;;;4974146;28;20368;-62
2024/03/18 07:12:52;;;;;;;;;;;;;;;;;;4974439;28;19962;-61
2024/03/18 07:15:18;;;;;;;;;;;;;;;;;;4974008;28;19968;-62
2024/03/18 07:17:44;;;;;;;;;;;;;;;;;;4974022;28;19913;-61
2024/03/18 07:20:11;;;;;;;;;;;;;;;;;;4973038;28;19910;-62
2024/03/18 07:22:37;;;;;;;;;;;;;;;;;;4974128;28;19906;-60
2024/03/18 07:25:09;;;;;;;;;;;;;;;;;;4974030;28;19909;-61
2024/03/18 07:27:37;;;;;;;;;;;;;;;;;;4973757;28;19910;-61
2024/03/18 07:30:06;;;;;;;;;;;;;;;;;;4979166;28;19912;-61
2024/03/18 07:32:35;;;;;;;;;;;;;;;;;;4993313;28;20065;-62
2024/03/18 07:35:02;;;;;;;;;;;;;;;;;;4993478;28;19920;-61
2024/03/18 07:37:29;;;;;;;;;;;;;;;;;;4993262;28;19905;-61
2024/03/18 07:39:57;;;;;;;;;;;;;;;;;;4993301;28;19916;-61
2024/03/18 07:42:27;;;;;;;;;;;;;;;;;;4975643;28;19913;-61
2024/03/18 07:45:00;;;;;;;;;;;;;;;;;;4993228;28;19914;-61
2024/03/18 07:47:27;;;;;;;;;;;;;;;;;;4992611;28;20012;-61
2024/03/18 07:49:53;;;;;;;;;;;;;;;;;;4993022;28;20004;-61
2024/03/18 07:52:22;;;;;;;;;;;;;;;;;;4992994;28;19910;-62
2024/03/18 07:54:54;;;;;;;;;;;;;;;;;;4992763;28;19932;-58
2024/03/18 07:57:24;;;;;;;;;;;;;;;;;;4992806;28;19941;-57
2024/03/18 07:59:50;;;;;;;;;;;;;;;;;;4992938;28;19952;-60
2024/03/18 08:02:17;;;;;;;;;;;;;;;;;;4992648;28;19909;-58
2024/03/18 08:04:43;;;;;;;;;;;;;;;;;;4992927;28;19906;-57
2024/03/18 08:07:09;;;;;;;;;;;;;;;;;;4992589;28;20327;-54
2024/03/18 08:09:35;;;;;;;;;;;;;;;;;;4992704;28;20030;-56
2024/03/18 08:12:04;;;;;;;;;;;;;;;;;;4992834;28;19910;-60
2024/03/18 08:14:32;;;;;;;;;;;;;;;;;;4975502;28;19955;-60
2024/03/18 08:17:04;;;;;;;;;;;;;;;;;;4992475;28;19924;-60
2024/03/18 08:19:30;;;;;;;;;;;;;;;;;;4992777;28;19945;-60
2024/03/18 08:21:56;;;;;;;;;;;;;;;;;;4992607;28;19906;-60
2024/03/18 08:24:22;;;;;;;;;;;;;;;;;;4992637;28;19910;-61
2024/03/18 08:26:49;;;;;;;;;;;;;;;;;;4974995;28;19917;-60
2024/03/18 08:29:15;;;;;;;;;;;;;;;;;;4992580;28;19916;-60
2024/03/18 08:31:42;;;;;;;;;;;;;;;;;;4992620;28;19913;-61
2024/03/18 08:34:14;;;;;;;;;;;;;;;;;;4975469;28;19905;-60
2024/03/18 08:36:40;;;;;;;;;;;;;;;;;;4992455;28;19909;-61
2024/03/18 08:39:06;;;;;;;;;;;;;;;;;;4992684;28;19905;-59
2024/03/18 08:41:33;;;;;;;;;;;;;;;;;;4992457;28;20008;-58
2024/03/18 08:43:59;;;;;;;;;;;;;;;;;;4992483;28;19905;-59
2024/03/18 08:46:25;;;;;;;;;;;;;;;;;;4992108;28;19909;-60
2024/03/18 08:48:51;;;;;;;;;;;;;;;;;;4992366;28;19917;-61
2024/03/18 08:51:18;;;;;;;;;;;;;;;;;;4974682;28;20607;-60
2024/03/18 08:53:44;;;;;;;;;;;;;;;;;;4975284;28;19905;-58
2024/03/18 08:56:12;;;;;;;;;;;;;;;;;;4973995;28;19918;-60
2024/03/18 08:58:38;;;;;;;;;;;;;;;;;;4975509;28;19910;-60
2024/03/18 09:01:08;;;;;;;;;;;;;;;;;;4996078;28;20358;-61
2024/03/18 09:03:38;;;;;;;;;;;;;;;;;;4978457;28;19913;-61
2024/03/18 09:06:04;;;;;;;;;;;;;;;;;;4995863;28;19909;-61
2024/03/18 09:08:37;;;;;;;;;;;;;;;;;;4996073;28;19945;-61
2024/03/18 09:11:04;;;;;;;;;;;;;;;;;;4996120;28;19909;-61
2024/03/18 09:13:30;;;;;;;;;;;;;;;;;;4996021;28;19905;-61
2024/03/18 09:15:57;;;;;;;;;;;;;;;;;;4995578;28;19909;-59
2024/03/18 09:18:23;;;;;;;;;;;;;;;;;;4978409;28;19960;-52
2024/03/18 09:20:51;;;;;;;;;;;;;;;;;;4978313;28;19977;-61
2024/03/18 09:23:18;;;;;;;;;;;;;;;;;;4994659;28;19906;-60
2024/03/18 09:25:44;;;;;;;;;;;;;;;;;;4994731;28;19916;-60
2024/03/18 09:28:10;;;;;;;;;;;;;;;;;;4995550;28;19909;-61
2024/03/18 09:30:36;;;;;;;;;;;;;;;;;;4995362;28;19957;-61
2024/03/18 09:33:03;;;;;;;;;;;;;;;;;;4978229;28;19917;-61
2024/03/18 09:35:29;;;;;;;;;;;;;;;;;;4995221;28;19914;-61
2024/03/18 09:37:58;;;;;;;;;;;;;;;;;;4995520;28;19953;-61
2024/03/18 09:40:24;;;;;;;;;;;;;;;;;;4995451;28;19910;-61
2024/03/18 09:42:50;;;;;;;;;;;;;;;;;;4995299;28;20423;-61
2024/03/18 09:45:26;;;;;;;;;;;;;;;;;;4994834;28;19909;-59
2024/03/18 09:47:53;;;;;;;;;;;;;;;;;;4977394;28;19921;-60
2024/03/18 09:50:25;;;;;;;;;;;;;;;;;;4977604;28;19906;-59
2024/03/18 09:52:51;;;;;;;;;;;;;;;;;;4994910;28;19916;-58
2024/03/18 09:55:21;;;;;;;;;;;;;;;;;;4994798;28;19906;-61
2024/03/18 09:57:51;;;;;;;;;;;;;;;;;;4994743;28;19914;-60
2024/03/18 10:00:17;;;;;;;;;;;;;;;;;;4995061;28;19990;-61
2024/03/18 10:02:43;;;;;;;;;;;;;;;;;;4995048;28;19957;-61
2024/03/18 10:05:13;;;;;;;;;;;;;;;;;;4994617;28;19910;-61
2024/03/18 10:07:40;;;;;;;;;;;;;;;;;;4977448;28;19909;-60
2024/03/18 10:10:25;;;;;;;;;;;;;;;;;;4993722;28;19996;-61
2024/03/18 10:12:55;;;;;;;;;;;;;;;;;;4977516;28;19943;-60
2024/03/18 10:15:24;;;;;;;;;;;;;;;;;;4977197;28;19910;-58
2024/03/18 10:17:52;;;;;;;;;;;;;;;;;;4977286;28;19909;-61
2024/03/18 10:20:21;;;;;;;;;;;;;;;;;;4994683;28;19912;-60
2024/03/18 10:22:47;;;;;;;;;;;;;;;;;;4994575;28;19964;-60
2024/03/18 10:25:21;;;;;;;;;;;;;;;;;;4994455;28;19933;-61
2024/03/18 10:27:50;;;;;;;;;;;;;;;;;;4994427;28;19916;-60
2024/03/18 10:30:16;;;;;;;;;;;;;;;;;;4994514;28;19906;-60
2024/03/18 10:32:43;;;;;;;;;;;;;;;;;;4994481;28;19961;-61
2024/03/18 10:35:09;;;;;;;;;;;;;;;;;;4993991;28;19905;-59
2024/03/18 10:37:35;;;;;;;;;;;;;;;;;;4994132;28;19909;-61
2024/03/18 10:40:01;;;;;;;;;;;;;;;;;;4994403;28;19905;-61
2024/03/18 10:42:28;;;;;;;;;;;;;;;;;;4994047;28;19910;-61
2024/03/18 10:44:54;;;;;;;;;;;;;;;;;;4994139;28;19933;-61
2024/03/18 10:47:20;;;;;;;;;;;;;;;;;;5008064;23;19921;-61
2024/03/18 10:49:46;;;;;;;;;;;;;;;;;;5032143;28;19917;-59
2024/03/18 10:52:13;;;;;;;;;;;;;;;;;;5033260;28;19905;-60
2024/03/18 10:54:39;;;;;;;;;;;;;;;;;;5033508;28;19916;-60
2024/03/18 10:57:05;;;;;;;;;;;;;;;;;;5033138;28;20063;-61
2024/03/18 10:59:47;;;;;;;;;;;;;;;;;;5033287;28;19909;-61
2024/03/18 11:02:14;;;;;;;;;;;;;;;;;;5015594;28;19909;-60
2024/03/18 11:04:40;;;;;;;;;;;;;;;;;;5033049;28;19905;-60
2024/03/18 11:07:12;;;;;;;;;;;;;;;;;;5033055;28;19909;-61
2024/03/18 11:09:40;;;;;;;;;;;;;;;;;;5033000;28;19913;-60
2024/03/18 11:12:10;;;;;;;;;;;;;;;;;;5032224;28;20515;-62
2024/03/18 11:14:38;;;;;;;;;;;;;;;;;;5016217;28;19973;-50
2024/03/18 11:17:06;;;;;;;;;;;;;;;;;;5018902;28;20399;-61
2024/03/18 11:19:33;;;;;;;;;;;;;;;;;;5024133;28;19909;-61
2024/03/18 11:21:59;;;;;;;;;;;;;;;;;;5011839;28;19945;-62
2024/03/18 11:24:25;;;;;;;;;;;;;;;;;;5014726;28;19909;-61
2024/03/18 11:26:51;;;;;;;;;;;;;;;;;;5027102;28;19913;-61
2024/03/18 11:29:17;;;;;;;;;;;;;;;;;;4999188;28;19996;-61
2024/03/18 11:31:44;;;;;;;;;;;;;;;;;;5020804;28;19913;-62
2024/03/18 11:34:13;;;;;;;;;;;;;;;;;;5031257;28;20020;-61
2024/03/18 11:36:39;;;;;;;;;;;;;;;;;;5000386;28;20395;-62
2024/03/18 11:39:12;;;;;;;;;;;;;;;;;;5000843;28;19949;-62
2024/03/18 11:41:38;;;;;;;;;;;;;;;;;;5022385;28;19919;-61
2024/03/18 11:44:04;;;;;;;;;;;;;;;;;;5030494;28;20040;-61
2024/03/18 11:46:31;;;;;;;;;;;;;;;;;;5001023;28;19917;-62
2024/03/18 11:48:57;;;;;;;;;;;;;;;;;;5022261;28;20379;-61
2024/03/18 11:51:23;;;;;;;;;;;;;;;;;;5027707;28;19913;-61
2024/03/18 11:53:49;;;;;;;;;;;;;;;;;;5017813;28;19917;-62
2024/03/18 11:56:18;;;;;;;;;;;;;;;;;;5026655;28;20000;-58
2024/03/18 11:58:44;;;;;;;;;;;;;;;;;;5032698;28;19909;-58
2024/03/18 12:01:11;;;;;;;;;;;;;;;;;;5026587;28;20631;-60
2024/03/18 12:03:37;;;;;;;;;;;;;;;;;;5029527;28;19909;-59
2024/03/18 12:06:03;;;;;;;;;;;;;;;;;;5028216;28;19910;-61
2024/03/18 12:08:31;;;;;;;;;;;;;;;;;;5046080;28;19919;-61
2024/03/18 12:10:57;;;;;;;;;;;;;;;;;;5025395;28;19909;-61
2024/03/18 12:13:24;;;;;;;;;;;;;;;;;;5022013;28;20006;-61
2024/03/18 12:15:50;;;;;;;;;;;;;;;;;;5029024;28;19912;-62
2024/03/18 12:18:16;;;;;;;;;;;;;;;;;;5011109;28;20008;-61
2024/03/18 12:20:42;;;;;;;;;;;;;;;;;;5023501;28;19905;-60
2024/03/18 12:23:16;;;;;;;;;;;;;;;;;;5011426;28;19909;-62
2024/03/18 12:28:43;;;;;;;;;;;;;;;;;;5029800;28;19917;-62
2024/03/18 12:31:16;;;;;;;;;;;;;;;;;;5029583;28;19925;-63
2024/03/18 12:33:42;;;;;;;;;;;;;;;;;;5021667;28;19952;-56
2024/03/18 12:36:08;;;;;;;;;;;;;;;;;;5015556;28;19920;-56
2024/03/18 12:38:34;;;;;;;;;;;;;;;;;;5014853;28;19909;-61
2024/03/18 12:41:01;;;;;;;;;;;;;;;;;;4997184;28;19913;-61
2024/03/18 12:43:30;;;;;;;;;;;;;;;;;;4999036;28;19964;-61
2024/03/18 12:45:56;;;;;;;;;;;;;;;;;;5007179;28;19913;-61
2024/03/18 12:48:22;;;;;;;;;;;;;;;;;;5014535;28;20294;-61
2024/03/18 12:50:49;;;;;;;;;;;;;;;;;;5007744;28;19909;-61
2024/03/18 12:53:16;;;;;;;;;;;;;;;;;;5033893;28;20555;-59
2024/03/18 12:55:42;;;;;;;;;;;;;;;;;;5032489;28;19912;-59
2024/03/18 12:58:08;;;;;;;;;;;;;;;;;;5034115;28;20298;-62
2024/03/18 13:00:43;;;;;;;;;;;;;;;;;;5010501;28;19912;-61
2024/03/18 13:03:09;;;;;;;;;;;;;;;;;;5014129;28;19955;-61
2024/03/18 13:05:39;;;;;;;;;;;;;;;;;;4997528;28;20383;-62
2024/03/18 13:08:05;;;;;;;;;;;;;;;;;;5015089;28;20600;-62
2024/03/18 13:10:32;;;;;;;;;;;;;;;;;;5033939;28;20019;-62
2024/03/18 13:12:58;;;;;;;;;;;;;;;;;;5033570;28;20458;-61
2024/03/18 13:15:24;;;;;;;;;;;;;;;;;;5021009;28;19939;-61
2024/03/18 13:17:51;;;;;;;;;;;;;;;;;;4995951;28;19930;-61
2024/03/18 13:20:21;;;;;;;;;;;;;;;;;;5027318;28;19909;-61
2024/03/18 13:22:48;;;;;;;;;;;;;;;;;;5033480;28;20386;-61
2024/03/18 13:25:15;;;;;;;;;;;;;;;;;;5000220;28;19909;-61
2024/03/18 13:27:44;;;;;;;;;;;;;;;;;;5013563;28;19944;-61
2024/03/18 13:30:13;;;;;;;;;;;;;;;;;;5013993;28;19925;-61
2024/03/18 13:32:41;;;;;;;;;;;;;;;;;;5013856;28;20368;-61
2024/03/18 13:35:08;;;;;;;;;;;;;;;;;;5021230;28;20023;-61
2024/03/18 13:37:36;;;;;;;;;;;;;;;;;;5013605;28;19909;-61
2024/03/18 13:40:05;;;;;;;;;;;;;;;;;;4996120;28;19914;-61
2024/03/18 13:42:35;;;;;;;;;;;;;;;;;;4995995;28;19996;-61
2024/03/18 13:45:02;;;;;;;;;;;;;;;;;;5030280;28;20013;-61
2024/03/18 13:47:28;;;;;;;;;;;;;;;;;;4999956;28;19913;-61
2024/03/18 13:49:55;;;;;;;;;;;;;;;;;;5024090;28;19917;-61
2024/03/18 13:52:21;;;;;;;;;;;;;;;;;;4979692;28;20004;-61
2024/03/18 13:54:47;;;;;;;;;;;;;;;;;;5026735;28;19912;-61
2024/03/18 13:57:16;;;;;;;;;;;;;;;;;;5014861;28;19919;-61
2024/03/18 13:59:43;;;;;;;;;;;;;;;;;;5033130;28;19916;-61
2024/03/18 14:02:14;;;;;;;;;;;;;;;;;;5014125;28;19913;-61
2024/03/18 14:04:43;;;;;;;;;;;;;;;;;;5013971;28;20375;-61
2024/03/18 14:07:09;;;;;;;;;;;;;;;;;;5012890;28;19913;-61
2024/03/18 14:09:35;;;;;;;;;;;;;;;;;;5031437;28;19913;-61
2024/03/18 14:12:20;;;;;;;;;;;;;;;;;;5032681;28;19913;-61
2024/03/18 14:14:47;;;;;;;;;;;;;;;;;;5030703;28;19920;-59
2024/03/18 14:17:14;;;;;;;;;;;;;;;;;;5027371;28;19940;-61
2024/03/18 14:19:41;;;;;;;;;;;;;;;;;;5017334;28;19912;-62
2024/03/18 14:22:08;;;;;;;;;;;;;;;;;;5014277;28;19916;-50
2024/03/18 14:24:43;;;;;;;;;;;;;;;;;;5032310;28;19913;-62
2024/03/18 14:27:10;;;;;;;;;;;;;;;;;;5032195;28;19964;-61
2024/03/18 14:29:36;;;;;;;;;;;;;;;;;;5011883;28;19996;-63
2024/03/18 14:32:05;;;;;;;;;;;;;;;;;;5004490;28;19913;-61
2024/03/18 14:34:31;;;;;;;;;;;;;;;;;;5012857;28;20379;-61
2024/03/18 14:36:59;;;;;;;;;;;;;;;;;;5004517;28;20287;-61
2024/03/18 14:39:28;;;;;;;;;;;;;;;;;;5001907;28;19909;-61
2024/03/18 14:41:58;;;;;;;;;;;;;;;;;;5030950;28;19909;-63
2024/03/18 14:44:24;;;;;;;;;;;;;;;;;;5022279;28;19936;-64
2024/03/18 14:46:54;;;;;;;;;;;;;;;;;;5005186;28;19959;-63
2024/03/18 14:49:23;;;;;;;;;;;;;;;;;;5029926;28;19917;-61
2024/03/18 14:51:55;;;;;;;;;;;;;;;;;;5014986;28;20396;-63
2024/03/18 14:54:21;;;;;;;;;;;;;;;;;;5033112;28;19909;-61
2024/03/18 14:56:47;;;;;;;;;;;;;;;;;;5027944;28;19909;-60
2024/03/18 14:59:13;;;;;;;;;;;;;;;;;;5022386;28;19951;-48
2024/03/18 15:01:40;;;;;;;;;;;;;;;;;;4997152;28;19917;-50
2024/03/18 15:04:06;;;;;;;;;;;;;;;;;;5014703;28;19915;-53
2024/03/18 15:06:35;;;;;;;;;;;;;;;;;;5021065;28;20364;-51
2024/03/18 15:09:06;;;;;;;;;;;;;;;;;;5026459;28;19940;-51
2024/03/18 15:11:35;;;;;;;;;;;;;;;;;;5015928;28;20358;-49
2024/03/18 15:14:08;;;;;;;;;;;;;;;;;;5029025;28;19963;-49
2024/03/18 15:16:35;;;;;;;;;;;;;;;;;;5015715;28;20371;-50
2024/03/18 15:19:02;;;;;;;;;;;;;;;;;;5029770;28;19913;-48
2024/03/18 15:21:28;;;;;;;;;;;;;;;;;;5032305;28;19924;-50
2024/03/18 15:29:05;;;;;;;;;;;;;;;;;;5032550;28;19913;-49
2024/03/18 15:31:34;;;;;;;;;;;;;;;;;;5032694;28;19916;-49
2024/03/18 15:34:01;;;;;;;;;;;;;;;;;;5032629;28;19909;-57
2024/03/18 15:36:30;;;;;;;;;;;;;;;;;;5032423;28;19909;-49
2024/03/18 15:38:56;;;;;;;;;;;;;;;;;;5032914;28;20509;-48
2024/03/18 15:41:32;;;;;;;;;;;;;;;;;;5032452;28;19955;-49
2024/03/18 15:43:58;;;;;;;;;;;;;;;;;;5032546;28;20032;-49
2024/03/18 15:46:25;;;;;;;;;;;;;;;;;;5032184;28;19905;-60
2024/03/18 15:48:51;;;;;;;;;;;;;;;;;;5032227;28;19917;-61
2024/03/18 15:51:17;;;;;;;;;;;;;;;;;;5032301;28;20015;-60
2024/03/18 15:53:43;;;;;;;;;;;;;;;;;;5032151;28;20004;-61
2024/03/18 15:56:12;;;;;;;;;;;;;;;;;;5032042;28;19912;-61
2024/03/18 15:58:39;;;;;;;;;;;;;;;;;;5014510;28;20228;-61
2024/03/18 16:01:05;;;;;;;;;;;;;;;;;;5032257;28;19909;-61
2024/03/18 16:03:32;;;;;;;;;;;;;;;;;;5014680;28;19909;-60
2024/03/18 16:05:58;;;;;;;;;;;;;;;;;;5031307;28;20326;-61
2024/03/18 16:08:30;;;;;;;;;;;;;;;;;;5025942;28;19935;-61
2024/03/18 16:11:05;;;;;;;;;;;;;;;;;;5021221;28;19913;-60
2024/03/18 16:13:35;;;;;;;;;;;;;;;;;;5021084;28;19956;-60
2024/03/18 16:16:04;;;;;;;;;;;;;;;;;;5008196;28;19920;-61
2024/03/18 16:18:31;;;;;;;;;;;;;;;;;;5006257;28;20402;-61
2024/03/18 16:20:58;;;;;;;;;;;;;;;;;;5022587;28;20012;-60
2024/03/18 16:23:29;;;;;;;;;;;;;;;;;;5019994;28;19944;-60
2024/03/18 16:25:55;;;;;;;;;;;;;;;;;;5019846;28;19917;-60
2024/03/18 16:28:22;;;;;;;;;;;;;;;;;;5016307;28;19974;-61
2024/03/18 16:30:48;;;;;;;;;;;;;;;;;;5008529;28;20037;-58
2024/03/18 16:33:14;;;;;;;;;;;;;;;;;;5020839;28;20039;-58
2024/03/18 16:35:43;;;;;;;;;;;;;;;;;;5021156;28;20288;-60
2024/03/18 16:38:10;;;;;;;;;;;;;;;;;;5031186;28;19909;-60
2024/03/18 16:40:37;;;;;;;;;;;;;;;;;;5024473;28;19999;-60
2024/03/18 16:43:03;;;;;;;;;;;;;;;;;;5023410;28;19909;-63
2024/03/18 16:45:29;;;;;;;;;;;;;;;;;;5002683;28;19909;-66
2024/03/18 16:47:58;;;;;;;;;;;;;;;;;;5048562;22;19932;-62
2024/03/18 16:50:28;;;;;;;;;;;;;;;;;;5067989;28;20007;-62
2024/03/18 16:52:54;;;;;;;;;;;;;;;;;;5070637;28;20386;-59
2024/03/18 16:55:20;;;;;;;;;;;;;;;;;;5070572;28;19909;-58